sensor_id;sensor_type;location;lat;lon;timestamp;P1;durP1;ratioP1;P2;durP2;ratioP2
59273;SDS011;45044;41.572;24.730;2023-12-04T00:00:32;1.08;;;0.65;;
59273;SDS011;45044;41.572;24.730;2023-12-04T00:03:09;0.60;;;0.40;;
59273;SDS011;45044;41.572;24.730;2023-12-04T00:05:36;1.10;;;0.70;;
59273;SDS011;45044;41.572;24.730;2023-12-04T00:08:03;0.98;;;0.50;;
59273;SDS011;45044;41.572;24.730;2023-12-04T00:10:30;1.83;;;0.60;;
59273;SDS011;45044;41.572;24.730;2023-12-04T00:13:00;1.27;;;0.80;;
59273;SDS011;45044;41.572;24.730;2023-12-04T00:15:27;1.10;;;0.95;;
59273;SDS011;45044;41.572;24.730;2023-12-04T00:17:55;0.70;;;0.45;;
59273;SDS011;45044;41.572;24.730;2023-12-04T00:20:22;0.63;;;0.50;;
59273;SDS011;45044;41.572;24.730;2023-12-04T00:22:49;1.35;;;0.50;;
59273;SDS011;45044;41.572;24.730;2023-12-04T00:25:16;1.92;;;0.50;;
59273;SDS011;45044;41.572;24.730;2023-12-04T00:27:44;0.75;;;0.45;;
59273;SDS011;45044;41.572;24.730;2023-12-04T00:30:12;1.98;;;0.40;;
59273;SDS011;45044;41.572;24.730;2023-12-04T00:32:43;1.55;;;0.73;;
59273;SDS011;45044;41.572;24.730;2023-12-04T00:35:09;2.70;;;0.77;;
59273;SDS011;45044;41.572;24.730;2023-12-04T00:37:37;1.48;;;0.55;;
59273;SDS011;45044;41.572;24.730;2023-12-04T00:40:05;1.65;;;0.50;;
59273;SDS011;45044;41.572;24.730;2023-12-04T00:42:34;0.55;;;0.55;;
59273;SDS011;45044;41.572;24.730;2023-12-04T00:45:01;1.02;;;0.60;;
59273;SDS011;45044;41.572;24.730;2023-12-04T00:47:29;0.32;;;0.32;;
59273;SDS011;45044;41.572;24.730;2023-12-04T00:49:55;0.68;;;0.50;;
59273;SDS011;45044;41.572;24.730;2023-12-04T00:52:22;1.50;;;0.80;;
59273;SDS011;45044;41.572;24.730;2023-12-04T00:54:49;0.90;;;0.63;;
59273;SDS011;45044;41.572;24.730;2023-12-04T00:57:16;4.47;;;2.33;;
59273;SDS011;45044;41.572;24.730;2023-12-04T00:59:43;5.60;;;1.52;;
59273;SDS011;45044;41.572;24.730;2023-12-04T01:02:11;3.13;;;0.98;;
59273;SDS011;45044;41.572;24.730;2023-12-04T01:04:41;1.50;;;0.85;;
59273;SDS011;45044;41.572;24.730;2023-12-04T01:07:09;2.55;;;0.80;;
59273;SDS011;45044;41.572;24.730;2023-12-04T01:09:37;1.35;;;0.40;;
59273;SDS011;45044;41.572;24.730;2023-12-04T01:12:04;1.77;;;0.52;;
59273;SDS011;45044;41.572;24.730;2023-12-04T01:14:31;2.97;;;1.27;;
59273;SDS011;45044;41.572;24.730;2023-12-04T01:16:59;6.47;;;2.00;;
59273;SDS011;45044;41.572;24.730;2023-12-04T01:19:26;1.27;;;0.80;;
59273;SDS011;45044;41.572;24.730;2023-12-04T01:21:56;2.97;;;0.90;;
59273;SDS011;45044;41.572;24.730;2023-12-04T01:24:23;6.68;;;3.00;;
59273;SDS011;45044;41.572;24.730;2023-12-04T01:26:50;4.70;;;2.00;;
59273;SDS011;45044;41.572;24.730;2023-12-04T01:29:17;7.50;;;2.38;;
59273;SDS011;45044;41.572;24.730;2023-12-04T01:31:44;1.13;;;0.75;;
59273;SDS011;45044;41.572;24.730;2023-12-04T01:34:11;3.83;;;1.50;;
59273;SDS011;45044;41.572;24.730;2023-12-04T01:36:41;2.03;;;0.95;;
59273;SDS011;45044;41.572;24.730;2023-12-04T01:39:09;4.15;;;1.45;;
59273;SDS011;45044;41.572;24.730;2023-12-04T01:41:37;6.70;;;2.70;;
59273;SDS011;45044;41.572;24.730;2023-12-04T01:44:03;4.07;;;1.30;;
59273;SDS011;45044;41.572;24.730;2023-12-04T01:46:30;2.15;;;1.20;;
59273;SDS011;45044;41.572;24.730;2023-12-04T01:48:57;9.13;;;3.65;;
59273;SDS011;45044;41.572;24.730;2023-12-04T01:51:25;6.97;;;2.95;;
59273;SDS011;45044;41.572;24.730;2023-12-04T01:53:53;5.72;;;1.70;;
59273;SDS011;45044;41.572;24.730;2023-12-04T01:56:22;5.07;;;2.13;;
59273;SDS011;45044;41.572;24.730;2023-12-04T01:58:48;5.05;;;1.80;;
59273;SDS011;45044;41.572;24.730;2023-12-04T02:01:15;2.35;;;1.52;;
59273;SDS011;45044;41.572;24.730;2023-12-04T02:03:44;3.67;;;2.03;;
59273;SDS011;45044;41.572;24.730;2023-12-04T02:06:12;3.97;;;1.58;;
59273;SDS011;45044;41.572;24.730;2023-12-04T02:08:42;1.33;;;0.47;;
59273;SDS011;45044;41.572;24.730;2023-12-04T02:11:09;2.65;;;1.50;;
59273;SDS011;45044;41.572;24.730;2023-12-04T02:13:36;1.23;;;0.73;;
59273;SDS011;45044;41.572;24.730;2023-12-04T02:16:03;0.47;;;0.32;;
59273;SDS011;45044;41.572;24.730;2023-12-04T02:18:34;2.85;;;1.20;;
59273;SDS011;45044;41.572;24.730;2023-12-04T02:21:01;6.28;;;2.67;;
59273;SDS011;45044;41.572;24.730;2023-12-04T02:23:28;5.45;;;2.60;;
59273;SDS011;45044;41.572;24.730;2023-12-04T02:25:59;2.50;;;1.08;;
59273;SDS011;45044;41.572;24.730;2023-12-04T02:28:33;1.48;;;0.88;;
59273;SDS011;45044;41.572;24.730;2023-12-04T02:31:01;1.13;;;0.70;;
59273;SDS011;45044;41.572;24.730;2023-12-04T02:33:31;2.17;;;1.10;;
59273;SDS011;45044;41.572;24.730;2023-12-04T02:36:00;2.05;;;0.98;;
59273;SDS011;45044;41.572;24.730;2023-12-04T02:38:28;2.88;;;1.30;;
59273;SDS011;45044;41.572;24.730;2023-12-04T02:40:56;3.63;;;1.73;;
59273;SDS011;45044;41.572;24.730;2023-12-04T02:43:23;3.88;;;1.30;;
59273;SDS011;45044;41.572;24.730;2023-12-04T02:45:53;0.70;;;0.50;;
59273;SDS011;45044;41.572;24.730;2023-12-04T02:48:28;1.63;;;0.93;;
59273;SDS011;45044;41.572;24.730;2023-12-04T02:51:03;1.45;;;0.90;;
59273;SDS011;45044;41.572;24.730;2023-12-04T02:53:30;3.30;;;1.02;;
59273;SDS011;45044;41.572;24.730;2023-12-04T02:55:57;1.17;;;0.68;;
59273;SDS011;45044;41.572;24.730;2023-12-04T02:58:24;1.92;;;0.77;;
59273;SDS011;45044;41.572;24.730;2023-12-04T03:00:50;1.55;;;0.85;;
59273;SDS011;45044;41.572;24.730;2023-12-04T03:03:17;1.10;;;0.70;;
59273;SDS011;45044;41.572;24.730;2023-12-04T03:05:44;1.02;;;0.75;;
59273;SDS011;45044;41.572;24.730;2023-12-04T03:08:11;0.60;;;0.60;;
59273;SDS011;45044;41.572;24.730;2023-12-04T03:10:37;1.95;;;0.93;;
59273;SDS011;45044;41.572;24.730;2023-12-04T03:13:04;1.90;;;1.08;;
59273;SDS011;45044;41.572;24.730;2023-12-04T03:15:31;2.30;;;1.00;;
59273;SDS011;45044;41.572;24.730;2023-12-04T03:17:59;0.93;;;0.75;;
59273;SDS011;45044;41.572;24.730;2023-12-04T03:20:28;1.85;;;1.08;;
59273;SDS011;45044;41.572;24.730;2023-12-04T03:22:55;1.42;;;0.60;;
59273;SDS011;45044;41.572;24.730;2023-12-04T03:25:22;1.65;;;0.75;;
59273;SDS011;45044;41.572;24.730;2023-12-04T03:27:49;2.15;;;1.10;;
59273;SDS011;45044;41.572;24.730;2023-12-04T03:30:17;2.25;;;0.90;;
59273;SDS011;45044;41.572;24.730;2023-12-04T03:32:43;1.27;;;0.90;;
59273;SDS011;45044;41.572;24.730;2023-12-04T03:35:10;1.10;;;0.88;;
59273;SDS011;45044;41.572;24.730;2023-12-04T03:37:37;1.40;;;0.77;;
59273;SDS011;45044;41.572;24.730;2023-12-04T03:40:04;1.52;;;1.15;;
59273;SDS011;45044;41.572;24.730;2023-12-04T03:42:31;2.90;;;1.20;;
59273;SDS011;45044;41.572;24.730;2023-12-04T03:44:58;2.50;;;1.40;;
59273;SDS011;45044;41.572;24.730;2023-12-04T03:47:25;4.40;;;1.60;;
59273;SDS011;45044;41.572;24.730;2023-12-04T03:49:54;2.30;;;1.13;;
59273;SDS011;45044;41.572;24.730;2023-12-04T03:52:20;1.70;;;0.90;;
59273;SDS011;45044;41.572;24.730;2023-12-04T03:54:47;1.92;;;1.00;;
59273;SDS011;45044;41.572;24.730;2023-12-04T03:57:14;1.40;;;0.95;;
59273;SDS011;45044;41.572;24.730;2023-12-04T03:59:41;4.18;;;1.70;;
59273;SDS011;45044;41.572;24.730;2023-12-04T04:02:07;2.30;;;1.00;;
59273;SDS011;45044;41.572;24.730;2023-12-04T04:04:34;2.10;;;1.08;;
59273;SDS011;45044;41.572;24.730;2023-12-04T04:07:01;2.55;;;1.35;;
59273;SDS011;45044;41.572;24.730;2023-12-04T04:09:28;2.20;;;1.30;;
59273;SDS011;45044;41.572;24.730;2023-12-04T04:11:55;3.95;;;1.90;;
59273;SDS011;45044;41.572;24.730;2023-12-04T04:14:22;3.63;;;1.30;;
59273;SDS011;45044;41.572;24.730;2023-12-04T04:16:50;3.55;;;1.55;;
59273;SDS011;45044;41.572;24.730;2023-12-04T04:19:17;2.30;;;1.27;;
59273;SDS011;45044;41.572;24.730;2023-12-04T04:21:44;2.45;;;1.25;;
59273;SDS011;45044;41.572;24.730;2023-12-04T04:24:11;5.85;;;2.40;;
59273;SDS011;45044;41.572;24.730;2023-12-04T04:26:37;3.75;;;1.70;;
59273;SDS011;45044;41.572;24.730;2023-12-04T04:29:04;3.40;;;1.70;;
59273;SDS011;45044;41.572;24.730;2023-12-04T04:31:31;4.95;;;2.17;;
59273;SDS011;45044;41.572;24.730;2023-12-04T04:33:58;7.57;;;3.38;;
59273;SDS011;45044;41.572;24.730;2023-12-04T04:36:24;9.00;;;3.83;;
59273;SDS011;45044;41.572;24.730;2023-12-04T04:38:51;7.88;;;2.95;;
59273;SDS011;45044;41.572;24.730;2023-12-04T04:41:18;9.88;;;5.07;;
59273;SDS011;45044;41.572;24.730;2023-12-04T04:43:45;13.48;;;6.38;;
59273;SDS011;45044;41.572;24.730;2023-12-04T04:46:11;16.15;;;8.13;;
59273;SDS011;45044;41.572;24.730;2023-12-04T04:48:39;3.87;;;1.77;;
59273;SDS011;45044;41.572;24.730;2023-12-04T04:51:07;4.57;;;1.70;;
59273;SDS011;45044;41.572;24.730;2023-12-04T04:53:33;4.47;;;1.27;;
59273;SDS011;45044;41.572;24.730;2023-12-04T04:56:00;5.03;;;1.92;;
59273;SDS011;45044;41.572;24.730;2023-12-04T04:58:27;1.75;;;0.85;;
59273;SDS011;45044;41.572;24.730;2023-12-04T05:00:54;2.87;;;1.43;;
59273;SDS011;45044;41.572;24.730;2023-12-04T05:03:21;5.80;;;3.17;;
59273;SDS011;45044;41.572;24.730;2023-12-04T05:05:50;6.67;;;3.03;;
59273;SDS011;45044;41.572;24.730;2023-12-04T05:08:17;2.67;;;1.23;;
59273;SDS011;45044;41.572;24.730;2023-12-04T05:10:44;2.63;;;1.75;;
59273;SDS011;45044;41.572;24.730;2023-12-04T05:13:11;7.85;;;2.92;;
59273;SDS011;45044;41.572;24.730;2023-12-04T05:15:37;14.52;;;6.43;;
59273;SDS011;45044;41.572;24.730;2023-12-04T05:18:04;15.07;;;7.00;;
59273;SDS011;45044;41.572;24.730;2023-12-04T05:20:31;7.47;;;3.33;;
59273;SDS011;45044;41.572;24.730;2023-12-04T05:22:58;9.77;;;4.63;;
59273;SDS011;45044;41.572;24.730;2023-12-04T05:25:24;13.03;;;6.30;;
59273;SDS011;45044;41.572;24.730;2023-12-04T05:27:59;10.60;;;4.38;;
59273;SDS011;45044;41.572;24.730;2023-12-04T05:30:26;7.75;;;3.65;;
59273;SDS011;45044;41.572;24.730;2023-12-04T05:32:52;8.17;;;5.80;;
59273;SDS011;45044;41.572;24.730;2023-12-04T05:35:21;5.57;;;2.88;;
59273;SDS011;45044;41.572;24.730;2023-12-04T05:37:48;3.53;;;2.23;;
59273;SDS011;45044;41.572;24.730;2023-12-04T05:40:14;7.50;;;2.78;;
59273;SDS011;45044;41.572;24.730;2023-12-04T05:42:41;6.93;;;3.30;;
59273;SDS011;45044;41.572;24.730;2023-12-04T05:45:08;6.18;;;2.90;;
59273;SDS011;45044;41.572;24.730;2023-12-04T05:47:35;4.75;;;2.63;;
59273;SDS011;45044;41.572;24.730;2023-12-04T05:50:02;7.68;;;3.10;;
59273;SDS011;45044;41.572;24.730;2023-12-04T05:52:29;3.40;;;1.70;;
59273;SDS011;45044;41.572;24.730;2023-12-04T05:54:55;7.00;;;2.45;;
59273;SDS011;45044;41.572;24.730;2023-12-04T05:57:22;30.02;;;16.27;;
59273;SDS011;45044;41.572;24.730;2023-12-04T05:59:50;64.95;;;34.20;;
59273;SDS011;45044;41.572;24.730;2023-12-04T06:02:16;12.60;;;6.85;;
59273;SDS011;45044;41.572;24.730;2023-12-04T06:04:43;8.00;;;3.72;;
59273;SDS011;45044;41.572;24.730;2023-12-04T06:07:10;33.43;;;17.17;;
59273;SDS011;45044;41.572;24.730;2023-12-04T06:09:37;53.57;;;27.53;;
59273;SDS011;45044;41.572;24.730;2023-12-04T06:12:04;45.47;;;22.87;;
59273;SDS011;45044;41.572;24.730;2023-12-04T06:14:35;68.53;;;31.40;;
59273;SDS011;45044;41.572;24.730;2023-12-04T06:17:02;28.87;;;15.43;;
59273;SDS011;45044;41.572;24.730;2023-12-04T06:19:29;59.17;;;28.80;;
59273;SDS011;45044;41.572;24.730;2023-12-04T06:21:56;48.73;;;23.60;;
59273;SDS011;45044;41.572;24.730;2023-12-04T06:24:23;28.03;;;14.60;;
59273;SDS011;45044;41.572;24.730;2023-12-04T06:26:50;19.97;;;11.23;;
59273;SDS011;45044;41.572;24.730;2023-12-04T06:29:18;33.77;;;18.13;;
59273;SDS011;45044;41.572;24.730;2023-12-04T06:31:45;34.83;;;18.90;;
59273;SDS011;45044;41.572;24.730;2023-12-04T06:34:13;31.33;;;18.00;;
59273;SDS011;45044;41.572;24.730;2023-12-04T06:36:40;28.13;;;18.27;;
59273;SDS011;45044;41.572;24.730;2023-12-04T06:39:11;34.20;;;17.67;;
59273;SDS011;45044;41.572;24.730;2023-12-04T06:41:42;18.90;;;9.32;;
59273;SDS011;45044;41.572;24.730;2023-12-04T06:44:09;21.83;;;10.67;;
59273;SDS011;45044;41.572;24.730;2023-12-04T06:46:37;22.37;;;11.47;;
59273;SDS011;45044;41.572;24.730;2023-12-04T06:49:05;16.83;;;7.17;;
59273;SDS011;45044;41.572;24.730;2023-12-04T06:51:35;7.00;;;3.47;;
59273;SDS011;45044;41.572;24.730;2023-12-04T06:54:02;7.20;;;3.30;;
59273;SDS011;45044;41.572;24.730;2023-12-04T06:56:29;5.23;;;2.87;;
59273;SDS011;45044;41.572;24.730;2023-12-04T06:58:55;14.85;;;8.40;;
59273;SDS011;45044;41.572;24.730;2023-12-04T07:01:22;8.73;;;4.53;;
59273;SDS011;45044;41.572;24.730;2023-12-04T07:03:49;9.13;;;4.63;;
59273;SDS011;45044;41.572;24.730;2023-12-04T07:06:16;8.38;;;3.33;;
59273;SDS011;45044;41.572;24.730;2023-12-04T07:08:43;16.65;;;8.20;;
59273;SDS011;45044;41.572;24.730;2023-12-04T07:11:11;8.40;;;3.97;;
59273;SDS011;45044;41.572;24.730;2023-12-04T07:13:41;5.53;;;3.60;;
59273;SDS011;45044;41.572;24.730;2023-12-04T07:16:08;11.38;;;6.53;;
59273;SDS011;45044;41.572;24.730;2023-12-04T07:18:35;13.50;;;7.97;;
59273;SDS011;45044;41.572;24.730;2023-12-04T07:21:02;10.77;;;6.47;;
59273;SDS011;45044;41.572;24.730;2023-12-04T07:23:30;10.13;;;6.63;;
59273;SDS011;45044;41.572;24.730;2023-12-04T07:25:57;8.93;;;5.43;;
59273;SDS011;45044;41.572;24.730;2023-12-04T07:28:24;16.58;;;8.77;;
59273;SDS011;45044;41.572;24.730;2023-12-04T07:30:50;13.07;;;8.30;;
59273;SDS011;45044;41.572;24.730;2023-12-04T07:33:17;13.05;;;7.82;;
59273;SDS011;45044;41.572;24.730;2023-12-04T07:35:44;21.20;;;10.60;;
59273;SDS011;45044;41.572;24.730;2023-12-04T07:38:11;20.08;;;9.48;;
59273;SDS011;45044;41.572;24.730;2023-12-04T07:40:38;9.68;;;6.30;;
59273;SDS011;45044;41.572;24.730;2023-12-04T07:43:05;19.98;;;9.75;;
59273;SDS011;45044;41.572;24.730;2023-12-04T07:45:32;10.88;;;5.57;;
59273;SDS011;45044;41.572;24.730;2023-12-04T07:47:58;6.20;;;4.22;;
59273;SDS011;45044;41.572;24.730;2023-12-04T07:50:25;5.88;;;3.20;;
59273;SDS011;45044;41.572;24.730;2023-12-04T07:52:52;9.85;;;4.93;;
59273;SDS011;45044;41.572;24.730;2023-12-04T07:55:18;10.35;;;5.10;;
59273;SDS011;45044;41.572;24.730;2023-12-04T07:57:45;10.93;;;5.05;;
59273;SDS011;45044;41.572;24.730;2023-12-04T08:00:13;7.90;;;4.32;;
59273;SDS011;45044;41.572;24.730;2023-12-04T08:02:40;4.57;;;2.42;;
59273;SDS011;45044;41.572;24.730;2023-12-04T08:05:08;6.53;;;3.25;;
59273;SDS011;45044;41.572;24.730;2023-12-04T08:07:36;7.63;;;4.78;;
59273;SDS011;45044;41.572;24.730;2023-12-04T08:10:03;10.07;;;5.53;;
59273;SDS011;45044;41.572;24.730;2023-12-04T08:12:31;15.05;;;8.77;;
59273;SDS011;45044;41.572;24.730;2023-12-04T08:14:57;10.43;;;5.97;;
59273;SDS011;45044;41.572;24.730;2023-12-04T08:17:24;15.68;;;7.65;;
59273;SDS011;45044;41.572;24.730;2023-12-04T08:19:51;14.07;;;8.77;;
59273;SDS011;45044;41.572;24.730;2023-12-04T08:22:19;16.60;;;9.00;;
59273;SDS011;45044;41.572;24.730;2023-12-04T08:24:45;7.35;;;3.75;;
59273;SDS011;45044;41.572;24.730;2023-12-04T08:27:12;14.30;;;6.10;;
59273;SDS011;45044;41.572;24.730;2023-12-04T08:29:39;8.88;;;4.78;;
59273;SDS011;45044;41.572;24.730;2023-12-04T08:32:06;18.63;;;9.48;;
59273;SDS011;45044;41.572;24.730;2023-12-04T08:34:33;11.60;;;5.78;;
59273;SDS011;45044;41.572;24.730;2023-12-04T08:37:01;9.43;;;4.53;;
59273;SDS011;45044;41.572;24.730;2023-12-04T08:39:28;20.90;;;12.77;;
59273;SDS011;45044;41.572;24.730;2023-12-04T08:41:55;16.45;;;8.20;;
59273;SDS011;45044;41.572;24.730;2023-12-04T08:44:30;12.32;;;5.38;;
59273;SDS011;45044;41.572;24.730;2023-12-04T08:46:57;13.98;;;7.75;;
59273;SDS011;45044;41.572;24.730;2023-12-04T08:49:24;9.35;;;4.70;;
59273;SDS011;45044;41.572;24.730;2023-12-04T08:52:05;18.05;;;9.48;;
59273;SDS011;45044;41.572;24.730;2023-12-04T08:54:32;8.77;;;4.03;;
59273;SDS011;45044;41.572;24.730;2023-12-04T08:56:59;8.88;;;5.20;;
59273;SDS011;45044;41.572;24.730;2023-12-04T08:59:26;11.82;;;5.72;;
59273;SDS011;45044;41.572;24.730;2023-12-04T09:01:54;9.15;;;5.28;;
59273;SDS011;45044;41.572;24.730;2023-12-04T09:04:20;12.75;;;6.75;;
59273;SDS011;45044;41.572;24.730;2023-12-04T09:06:48;16.10;;;8.60;;
59273;SDS011;45044;41.572;24.730;2023-12-04T09:09:18;11.93;;;5.97;;
59273;SDS011;45044;41.572;24.730;2023-12-04T09:11:45;7.30;;;3.17;;
59273;SDS011;45044;41.572;24.730;2023-12-04T09:14:12;15.32;;;6.05;;
59273;SDS011;45044;41.572;24.730;2023-12-04T09:16:39;16.30;;;8.55;;
59273;SDS011;45044;41.572;24.730;2023-12-04T09:19:05;13.77;;;7.20;;
59273;SDS011;45044;41.572;24.730;2023-12-04T09:21:32;10.38;;;4.45;;
59273;SDS011;45044;41.572;24.730;2023-12-04T09:24:00;13.13;;;5.50;;
59273;SDS011;45044;41.572;24.730;2023-12-04T09:26:27;10.35;;;4.68;;
59273;SDS011;45044;41.572;24.730;2023-12-04T09:28:53;10.43;;;4.30;;
59273;SDS011;45044;41.572;24.730;2023-12-04T09:31:20;12.25;;;5.50;;
59273;SDS011;45044;41.572;24.730;2023-12-04T09:33:47;5.90;;;3.05;;
59273;SDS011;45044;41.572;24.730;2023-12-04T09:36:14;14.60;;;8.50;;
59273;SDS011;45044;41.572;24.730;2023-12-04T09:38:42;8.80;;;5.05;;
59273;SDS011;45044;41.572;24.730;2023-12-04T09:41:09;6.38;;;4.18;;
59273;SDS011;45044;41.572;24.730;2023-12-04T09:43:38;13.85;;;7.90;;
59273;SDS011;45044;41.572;24.730;2023-12-04T09:46:05;17.55;;;9.18;;
59273;SDS011;45044;41.572;24.730;2023-12-04T09:48:33;5.38;;;3.70;;
59273;SDS011;45044;41.572;24.730;2023-12-04T09:51:01;10.50;;;5.75;;
59273;SDS011;45044;41.572;24.730;2023-12-04T09:53:28;8.95;;;4.93;;
59273;SDS011;45044;41.572;24.730;2023-12-04T09:55:58;16.73;;;7.32;;
59273;SDS011;45044;41.572;24.730;2023-12-04T09:58:27;9.85;;;5.38;;
59273;SDS011;45044;41.572;24.730;2023-12-04T10:00:56;8.18;;;4.38;;
59273;SDS011;45044;41.572;24.730;2023-12-04T10:03:24;12.52;;;6.22;;
59273;SDS011;45044;41.572;24.730;2023-12-04T10:05:53;8.93;;;3.65;;
59273;SDS011;45044;41.572;24.730;2023-12-04T10:08:20;11.48;;;6.88;;
59273;SDS011;45044;41.572;24.730;2023-12-04T10:10:48;7.55;;;3.85;;
59273;SDS011;45044;41.572;24.730;2023-12-04T10:13:15;8.23;;;3.83;;
59273;SDS011;45044;41.572;24.730;2023-12-04T10:16:01;11.38;;;6.22;;
59273;SDS011;45044;41.572;24.730;2023-12-04T10:18:32;9.23;;;5.57;;
59273;SDS011;45044;41.572;24.730;2023-12-04T10:20:59;11.10;;;5.93;;
59273;SDS011;45044;41.572;24.730;2023-12-04T10:23:38;12.52;;;6.35;;
59273;SDS011;45044;41.572;24.730;2023-12-04T10:26:07;10.45;;;4.63;;
59273;SDS011;45044;41.572;24.730;2023-12-04T10:28:35;13.13;;;6.38;;
59273;SDS011;45044;41.572;24.730;2023-12-04T10:31:02;10.40;;;5.30;;
59273;SDS011;45044;41.572;24.730;2023-12-04T10:33:29;7.28;;;2.55;;
59273;SDS011;45044;41.572;24.730;2023-12-04T10:35:57;8.35;;;4.88;;
59273;SDS011;45044;41.572;24.730;2023-12-04T10:38:24;9.20;;;4.07;;
59273;SDS011;45044;41.572;24.730;2023-12-04T10:40:53;8.90;;;3.60;;
59273;SDS011;45044;41.572;24.730;2023-12-04T10:43:23;8.35;;;3.80;;
59273;SDS011;45044;41.572;24.730;2023-12-04T10:45:53;6.47;;;3.25;;
59273;SDS011;45044;41.572;24.730;2023-12-04T10:48:21;7.15;;;3.28;;
59273;SDS011;45044;41.572;24.730;2023-12-04T10:50:48;7.45;;;3.83;;
59273;SDS011;45044;41.572;24.730;2023-12-04T10:53:16;15.32;;;5.82;;
59273;SDS011;45044;41.572;24.730;2023-12-04T10:55:44;5.60;;;2.35;;
59273;SDS011;45044;41.572;24.730;2023-12-04T10:58:13;2.47;;;1.60;;
59273;SDS011;45044;41.572;24.730;2023-12-04T11:00:44;5.22;;;2.22;;
59273;SDS011;45044;41.572;24.730;2023-12-04T11:03:13;6.47;;;2.50;;
59273;SDS011;45044;41.572;24.730;2023-12-04T11:05:46;6.30;;;2.40;;
59273;SDS011;45044;41.572;24.730;2023-12-04T11:08:17;5.93;;;2.70;;
59273;SDS011;45044;41.572;24.730;2023-12-04T11:13:34;11.85;;;5.05;;
59273;SDS011;45044;41.572;24.730;2023-12-04T11:22:07;7.00;;;3.05;;
59273;SDS011;45044;41.572;24.730;2023-12-04T11:24:34;13.95;;;6.07;;
59273;SDS011;45044;41.572;24.730;2023-12-04T11:27:02;10.55;;;4.82;;
59273;SDS011;45044;41.572;24.730;2023-12-04T11:29:30;7.13;;;3.92;;
59273;SDS011;45044;41.572;24.730;2023-12-04T11:31:58;4.43;;;2.67;;
59273;SDS011;45044;41.572;24.730;2023-12-04T11:34:25;7.57;;;3.83;;
59273;SDS011;45044;41.572;24.730;2023-12-04T11:36:52;3.63;;;2.35;;
59273;SDS011;45044;41.572;24.730;2023-12-04T11:39:19;2.72;;;2.03;;
59273;SDS011;45044;41.572;24.730;2023-12-04T11:41:46;5.25;;;2.58;;
59273;SDS011;45044;41.572;24.730;2023-12-04T11:44:13;7.97;;;3.95;;
59273;SDS011;45044;41.572;24.730;2023-12-04T11:47:16;7.40;;;4.05;;
59273;SDS011;45044;41.572;24.730;2023-12-04T11:49:37;13.00;;;7.22;;
59273;SDS011;45044;41.572;24.730;2023-12-04T11:52:04;10.32;;;6.10;;
59273;SDS011;45044;41.572;24.730;2023-12-04T11:57:25;17.83;;;10.50;;
59273;SDS011;45044;41.572;24.730;2023-12-04T12:05:40;9.60;;;5.03;;
59273;SDS011;45044;41.572;24.730;2023-12-04T12:08:09;20.77;;;10.30;;
59273;SDS011;45044;41.572;24.730;2023-12-04T12:10:36;16.42;;;11.07;;
59273;SDS011;45044;41.572;24.730;2023-12-04T12:13:03;20.08;;;12.65;;
59273;SDS011;45044;41.572;24.730;2023-12-04T12:15:31;22.00;;;13.35;;
59273;SDS011;45044;41.572;24.730;2023-12-04T12:17:59;15.60;;;10.52;;
59273;SDS011;45044;41.572;24.730;2023-12-04T12:20:26;16.33;;;9.70;;
59273;SDS011;45044;41.572;24.730;2023-12-04T12:22:53;14.45;;;9.45;;
59273;SDS011;45044;41.572;24.730;2023-12-04T12:25:20;11.32;;;6.28;;
59273;SDS011;45044;41.572;24.730;2023-12-04T12:27:50;13.23;;;8.65;;
59273;SDS011;45044;41.572;24.730;2023-12-04T12:30:17;15.27;;;8.45;;
59273;SDS011;45044;41.572;24.730;2023-12-04T12:32:43;11.52;;;6.47;;
59273;SDS011;45044;41.572;24.730;2023-12-04T12:35:10;6.53;;;2.80;;
59273;SDS011;45044;41.572;24.730;2023-12-04T12:37:38;3.63;;;1.63;;
59273;SDS011;45044;41.572;24.730;2023-12-04T12:40:06;6.10;;;2.65;;
59273;SDS011;45044;41.572;24.730;2023-12-04T12:42:36;19.30;;;11.88;;
59273;SDS011;45044;41.572;24.730;2023-12-04T12:45:13;24.77;;;13.65;;
59273;SDS011;45044;41.572;24.730;2023-12-04T12:47:42;20.50;;;11.38;;
59273;SDS011;45044;41.572;24.730;2023-12-04T12:50:10;17.45;;;9.93;;
59273;SDS011;45044;41.572;24.730;2023-12-04T12:52:41;20.73;;;10.45;;
59273;SDS011;45044;41.572;24.730;2023-12-04T12:55:09;19.02;;;11.27;;
59273;SDS011;45044;41.572;24.730;2023-12-04T12:57:37;29.27;;;16.70;;
59273;SDS011;45044;41.572;24.730;2023-12-04T13:00:04;25.90;;;13.43;;
59273;SDS011;45044;41.572;24.730;2023-12-04T13:02:34;14.73;;;8.07;;
59273;SDS011;45044;41.572;24.730;2023-12-04T13:05:02;8.95;;;4.15;;
59273;SDS011;45044;41.572;24.730;2023-12-04T13:07:31;6.95;;;3.55;;
59273;SDS011;45044;41.572;24.730;2023-12-04T13:09:58;8.95;;;4.57;;
59273;SDS011;45044;41.572;24.730;2023-12-04T13:12:25;15.32;;;8.45;;
59273;SDS011;45044;41.572;24.730;2023-12-04T13:14:51;30.85;;;15.68;;
59273;SDS011;45044;41.572;24.730;2023-12-04T13:17:18;38.20;;;20.77;;
59273;SDS011;45044;41.572;24.730;2023-12-04T13:19:45;25.35;;;11.00;;
59273;SDS011;45044;41.572;24.730;2023-12-04T13:22:12;32.53;;;16.45;;
59273;SDS011;45044;41.572;24.730;2023-12-04T13:24:38;22.92;;;12.13;;
59273;SDS011;45044;41.572;24.730;2023-12-04T13:27:07;36.45;;;16.98;;
59273;SDS011;45044;41.572;24.730;2023-12-04T13:29:34;22.67;;;11.38;;
59273;SDS011;45044;41.572;24.730;2023-12-04T13:32:01;22.85;;;12.13;;
59273;SDS011;45044;41.572;24.730;2023-12-04T13:34:29;15.40;;;8.63;;
59273;SDS011;45044;41.572;24.730;2023-12-04T13:36:56;20.40;;;12.13;;
59273;SDS011;45044;41.572;24.730;2023-12-04T13:39:22;13.85;;;7.35;;
59273;SDS011;45044;41.572;24.730;2023-12-04T13:42:08;16.13;;;8.25;;
59273;SDS011;45044;41.572;24.730;2023-12-04T13:47:20;12.35;;;6.53;;
59273;SDS011;45044;41.572;24.730;2023-12-04T13:49:46;15.20;;;7.05;;
59273;SDS011;45044;41.572;24.730;2023-12-04T13:52:13;13.90;;;6.82;;
59273;SDS011;45044;41.572;24.730;2023-12-04T13:54:40;18.77;;;9.57;;
59273;SDS011;45044;41.572;24.730;2023-12-04T13:57:16;14.85;;;7.35;;
59273;SDS011;45044;41.572;24.730;2023-12-04T13:59:55;16.30;;;9.52;;
59273;SDS011;45044;41.572;24.730;2023-12-04T14:02:25;23.27;;;16.00;;
59273;SDS011;45044;41.572;24.730;2023-12-04T14:04:52;8.68;;;4.15;;
59273;SDS011;45044;41.572;24.730;2023-12-04T14:07:19;16.05;;;9.38;;
59273;SDS011;45044;41.572;24.730;2023-12-04T14:09:47;17.83;;;10.45;;
59273;SDS011;45044;41.572;24.730;2023-12-04T14:12:14;24.35;;;13.20;;
59273;SDS011;45044;41.572;24.730;2023-12-04T14:14:42;52.28;;;22.13;;
59273;SDS011;45044;41.572;24.730;2023-12-04T14:17:09;19.15;;;11.85;;
59273;SDS011;45044;41.572;24.730;2023-12-04T14:19:38;11.75;;;8.35;;
59273;SDS011;45044;41.572;24.730;2023-12-04T14:22:06;11.60;;;7.90;;
59273;SDS011;45044;41.572;24.730;2023-12-04T14:24:33;15.02;;;9.07;;
59273;SDS011;45044;41.572;24.730;2023-12-04T14:27:01;23.20;;;14.32;;
59273;SDS011;45044;41.572;24.730;2023-12-04T14:29:29;17.13;;;10.00;;
59273;SDS011;45044;41.572;24.730;2023-12-04T14:31:56;24.65;;;15.02;;
59273;SDS011;45044;41.572;24.730;2023-12-04T14:34:23;22.55;;;12.30;;
59273;SDS011;45044;41.572;24.730;2023-12-04T14:36:50;24.30;;;12.10;;
59273;SDS011;45044;41.572;24.730;2023-12-04T14:39:17;18.00;;;9.48;;
59273;SDS011;45044;41.572;24.730;2023-12-04T14:41:45;15.15;;;8.68;;
59273;SDS011;45044;41.572;24.730;2023-12-04T14:44:12;9.50;;;5.68;;
59273;SDS011;45044;41.572;24.730;2023-12-04T14:46:38;15.82;;;11.23;;
59273;SDS011;45044;41.572;24.730;2023-12-04T14:49:05;15.95;;;11.27;;